Terminal Aerodrome Forecast
Issued by NWS

Home | Current Version | Previous Version | Text Only | Print | Product List | Glossary On
Versions: 1 2 3 4 5 6 7 8 9 10 11 12 13 14 15 16 17 18 19 20 21 22 23 24 25 26
000
FTUS46 KSGX 281135
TAFSAN
TAF
KSAN 281135Z 2812/2918 VRB04KT 1SM BR BKN005
      TEMPO 2812/2815 1/2SM FG BKN002
     FM281500 VRB04KT P6SM SKC
     FM282000 28011KT P6SM SKC
     FM290200 VRB05KT P6SM FEW008
     FM291100 VRB05KT 6SM BR OVC005
     FM291600 VRB05KT P6SM SKC=

USA.gov is the U.S. government's official web portal to all federal, state and local government web resources and services.